createdAt,value
2018-03-04T00:00:09.496Z,58.20
2018-03-04T00:02:37.089Z,58.00
2018-03-04T00:05:04.688Z,55.60
2018-03-04T00:07:32.294Z,56.50
2018-03-04T00:09:59.884Z,56.27
2018-03-04T00:12:27.490Z,58.17
2018-03-04T00:14:55.842Z,58.97
2018-03-04T00:17:24.936Z,59.57
2018-03-04T00:19:53.503Z,60.13
2018-03-04T00:22:40.696Z,56.70
2018-03-04T00:25:08.319Z,60.13
2018-03-04T00:27:36.664Z,58.80
2018-03-04T00:30:04.230Z,59.23
2018-03-04T00:32:33.364Z,58.00
2018-03-04T00:35:00.960Z,56.00
2018-03-04T00:37:28.547Z,58.60
2018-03-04T00:39:56.167Z,59.63
2018-03-04T00:42:23.740Z,57.17
2018-03-04T00:44:51.330Z,59.33
2018-03-04T00:47:20.070Z,58.20
2018-03-04T00:49:47.636Z,59.23
2018-03-04T00:52:15.201Z,56.10
2018-03-04T00:54:42.812Z,57.50
2018-03-04T00:57:11.154Z,56.17
2018-03-04T00:59:40.463Z,58.20
2018-03-04T01:02:08.054Z,58.10
2018-03-04T01:04:35.664Z,57.77
2018-03-04T01:07:03.235Z,56.23
2018-03-04T01:09:30.853Z,59.10
2018-03-04T01:11:58.485Z,58.67
2018-03-04T01:14:26.841Z,57.80
2018-03-04T01:16:55.503Z,58.00
2018-03-04T01:19:23.073Z,56.27
2018-03-04T01:21:51.421Z,57.10
2018-03-04T01:24:19.285Z,59.50
2018-03-04T01:26:46.856Z,55.37
2018-03-04T01:29:14.441Z,57.80
2018-03-04T01:31:42.074Z,57.50
2018-03-04T01:34:09.675Z,58.33
2018-03-04T01:36:38.211Z,56.20
2018-03-04T01:39:05.782Z,58.47
2018-03-04T01:41:33.419Z,58.93
2018-03-04T01:44:01.037Z,56.30
2018-03-04T01:46:29.373Z,55.37
2018-03-04T01:48:56.991Z,56.17
2018-03-04T01:51:36.492Z,56.70
2018-03-04T01:54:04.091Z,55.97
2018-03-04T01:56:31.665Z,55.13
2018-03-04T01:58:59.249Z,59.77
2018-03-04T02:01:27.113Z,55.20
2018-03-04T02:03:56.323Z,53.77
2018-03-04T02:06:23.891Z,57.30
2018-03-04T02:08:51.490Z,57.40
2018-03-04T02:11:19.061Z,56.37
2018-03-04T02:13:46.666Z,55.10
2018-03-04T02:16:14.302Z,60.50
2018-03-04T02:18:41.902Z,58.00
2018-03-04T02:21:09.512Z,55.40
2018-03-04T02:23:37.072Z,59.07
2018-03-04T02:26:04.664Z,54.30
2018-03-04T02:28:32.290Z,54.73
2018-03-04T02:30:59.905Z,53.83
2018-03-04T02:33:28.243Z,54.77
2018-03-04T02:35:55.830Z,54.93
2018-03-04T02:38:24.218Z,54.30
2018-03-04T02:40:52.573Z,55.53
2018-03-04T02:43:20.137Z,54.43
2018-03-04T02:45:47.741Z,57.47
2018-03-04T02:48:15.637Z,53.60
2018-03-04T02:50:44.229Z,53.33
2018-03-04T02:53:11.802Z,53.83
2018-03-04T02:55:41.196Z,55.70
2018-03-04T02:58:08.835Z,54.83
2018-03-04T03:00:36.417Z,55.27
2018-03-04T03:03:04.047Z,54.27
2018-03-04T03:05:31.620Z,52.13
2018-03-04T03:07:59.201Z,52.97
2018-03-04T03:10:28.325Z,52.93
2018-03-04T03:12:56.659Z,55.20
2018-03-04T03:15:24.228Z,52.00
2018-03-04T03:17:53.441Z,57.90
2018-03-04T03:20:21.802Z,54.50
2018-03-04T03:22:49.481Z,52.97
2018-03-04T03:25:17.853Z,57.07
2018-03-04T03:27:45.433Z,53.57
2018-03-04T03:30:13.776Z,55.50
2018-03-04T03:32:42.164Z,52.77
2018-03-04T03:35:09.774Z,54.00
2018-03-04T03:37:37.364Z,55.27
2018-03-04T03:40:05.529Z,57.20
2018-03-04T03:42:33.118Z,54.90
2018-03-04T03:45:00.695Z,57.17
2018-03-04T03:47:29.064Z,54.53
2018-03-04T03:49:57.425Z,54.20
2018-03-04T03:52:25.825Z,55.57
2018-03-04T03:54:54.226Z,54.80
2018-03-04T03:57:22.414Z,51.97
2018-03-04T03:59:49.984Z,55.90
2018-03-04T04:02:17.594Z,54.10
2018-03-04T04:04:45.949Z,54.33
2018-03-04T04:07:13.576Z,53.00
2018-03-04T04:09:41.151Z,52.50
2018-03-04T04:12:08.760Z,54.60
2018-03-04T04:14:36.377Z,55.87
2018-03-04T04:17:03.938Z,54.53
2018-03-04T04:19:31.682Z,54.00
2018-03-04T04:21:59.251Z,55.70
2018-03-04T04:24:26.823Z,56.30
2018-03-04T04:26:54.418Z,55.03
2018-03-04T04:29:22.000Z,53.33
2018-03-04T04:31:49.638Z,56.53
2018-03-04T04:34:18.541Z,54.83
2018-03-04T04:36:46.115Z,52.60
2018-03-04T04:39:13.720Z,55.33
2018-03-04T04:41:41.666Z,57.20
2018-03-04T04:44:09.252Z,53.20
2018-03-04T04:46:37.626Z,55.17
2018-03-04T04:49:05.240Z,54.87
2018-03-04T04:51:32.807Z,55.60
2018-03-04T04:54:00.400Z,55.70
2018-03-04T04:56:28.265Z,57.17
2018-03-04T04:58:55.846Z,55.90
2018-03-04T05:01:24.185Z,58.57
2018-03-04T05:03:51.781Z,53.90
2018-03-04T05:06:20.236Z,56.27
2018-03-04T05:08:47.811Z,52.17
2018-03-04T05:11:15.576Z,54.03
2018-03-04T05:13:43.143Z,58.03
2018-03-04T05:16:11.685Z,55.70
2018-03-04T05:18:39.291Z,54.63
2018-03-04T05:21:06.866Z,55.43
2018-03-04T05:23:34.440Z,57.43
2018-03-04T05:26:02.076Z,56.23
2018-03-04T05:28:29.691Z,53.77
2018-03-04T05:30:58.781Z,57.80
2018-03-04T05:33:26.394Z,57.53
2018-03-04T05:35:53.975Z,57.00
2018-03-04T05:38:21.560Z,55.37
2018-03-04T05:40:49.633Z,56.57
2018-03-04T05:43:17.226Z,59.63
2018-03-04T05:45:45.562Z,55.37
2018-03-04T05:48:13.185Z,54.07
2018-03-04T05:50:40.756Z,59.50
2018-03-04T05:53:08.336Z,56.93
2018-03-04T05:55:35.939Z,58.97
2018-03-04T05:58:04.288Z,58.60
2018-03-04T06:00:31.993Z,56.83
2018-03-04T06:02:59.612Z,60.50
2018-03-04T06:05:27.186Z,60.10
2018-03-04T06:07:55.517Z,63.03
2018-03-04T06:10:23.119Z,58.73
2018-03-04T06:12:51.447Z,57.33
2018-03-04T06:15:19.079Z,55.70
2018-03-04T06:17:46.931Z,56.80
2018-03-04T06:20:15.283Z,58.00
2018-03-04T06:22:43.959Z,54.43
2018-03-04T06:25:11.564Z,57.73
2018-03-04T06:27:39.489Z,58.90
2018-03-04T06:30:07.837Z,58.30
2018-03-04T06:32:35.407Z,61.97
2018-03-04T06:35:03.022Z,59.67
2018-03-04T06:37:30.670Z,59.30
2018-03-04T06:39:59.026Z,60.47
2018-03-04T06:42:26.654Z,62.17
2018-03-04T06:44:54.246Z,58.90
2018-03-04T06:47:21.806Z,56.80
2018-03-04T06:49:49.410Z,62.17
2018-03-04T06:52:17.068Z,56.40
2018-03-04T06:54:44.746Z,59.57
2018-03-04T06:57:12.357Z,60.53
2018-03-04T06:59:39.919Z,59.60
2018-03-04T07:02:08.680Z,58.17
2018-03-04T07:04:36.257Z,59.73
2018-03-04T07:07:03.827Z,58.40
2018-03-04T07:09:32.186Z,57.70
2018-03-04T07:11:59.758Z,61.27
2018-03-04T07:14:28.149Z,59.40
2018-03-04T07:16:56.525Z,61.63
2018-03-04T07:19:24.905Z,61.43
2018-03-04T07:21:53.258Z,58.20
2018-03-04T07:24:21.735Z,57.57
2018-03-04T07:26:49.327Z,60.13
2018-03-04T07:29:16.927Z,59.50
2018-03-04T07:31:44.752Z,55.67
2018-03-04T07:34:12.362Z,58.47
2018-03-04T07:36:39.961Z,62.40
2018-03-04T07:39:08.338Z,61.10
2018-03-04T07:41:36.682Z,60.00
2018-03-04T07:44:04.281Z,60.17
2018-03-04T07:46:32.659Z,60.10
2018-03-04T07:49:00.629Z,58.53
2018-03-04T07:51:28.974Z,62.80
2018-03-04T07:53:56.579Z,62.03
2018-03-04T07:56:24.362Z,60.50
2018-03-04T07:58:51.930Z,67.33
2018-03-04T08:01:19.509Z,58.33
2018-03-04T08:03:47.475Z,59.37
2018-03-04T08:06:15.225Z,58.73
2018-03-04T08:08:42.830Z,57.30
2018-03-04T08:11:11.206Z,58.67
2018-03-04T08:13:39.613Z,60.40
2018-03-04T08:16:07.174Z,61.13
2018-03-04T08:18:34.783Z,60.80
2018-03-04T08:21:02.361Z,57.80
2018-03-04T08:23:30.713Z,60.00
2018-03-04T08:26:10.318Z,59.33
2018-03-04T08:28:37.964Z,58.40
2018-03-04T08:31:06.286Z,59.33
2018-03-04T08:33:34.650Z,57.10
2018-03-04T08:36:02.288Z,59.37
2018-03-04T08:38:30.016Z,60.90
2018-03-04T08:40:58.411Z,58.30
2018-03-04T08:43:25.983Z,60.03
2018-03-04T08:45:53.560Z,61.20
2018-03-04T08:48:21.446Z,59.60
2018-03-04T08:50:48.994Z,60.60
2018-03-04T08:53:18.087Z,61.00
2018-03-04T08:55:45.729Z,61.07
2018-03-04T08:58:13.328Z,60.73
2018-03-04T09:00:41.185Z,60.87
2018-03-04T09:03:09.746Z,58.20
2018-03-04T09:05:37.315Z,63.10
2018-03-04T09:08:04.875Z,58.23
2018-03-04T09:10:32.528Z,61.50
2018-03-04T09:13:00.089Z,58.33
2018-03-04T09:15:27.685Z,60.80
2018-03-04T09:17:56.021Z,59.00
2018-03-04T09:20:23.591Z,57.67
2018-03-04T09:22:51.480Z,57.17
2018-03-04T09:25:19.826Z,57.90
2018-03-04T09:27:47.397Z,59.97
2018-03-04T09:30:14.996Z,58.50
2018-03-04T09:32:43.336Z,59.53
2018-03-04T09:35:10.948Z,57.37
2018-03-04T09:37:38.546Z,59.43
2018-03-04T09:40:06.118Z,59.90
2018-03-04T09:42:33.783Z,59.77
2018-03-04T09:45:02.875Z,60.10
2018-03-04T09:47:30.434Z,60.87
2018-03-04T09:49:58.292Z,58.40
2018-03-04T09:52:25.904Z,61.13
2018-03-04T09:54:53.483Z,61.27
2018-03-04T09:57:21.525Z,59.80
2018-03-04T09:59:49.135Z,61.47
2018-03-04T10:02:16.701Z,60.17
2018-03-04T10:04:44.305Z,58.33
2018-03-04T10:07:11.865Z,58.23
2018-03-04T10:09:39.481Z,59.20
2018-03-04T10:12:07.087Z,59.77
2018-03-04T10:14:34.654Z,58.60
2018-03-04T10:17:02.534Z,61.60
2018-03-04T10:19:30.156Z,61.50
2018-03-04T10:21:58.648Z,59.90
2018-03-04T10:24:26.266Z,60.47
2018-03-04T10:26:55.075Z,62.60
2018-03-04T10:29:23.740Z,54.27
2018-03-04T10:31:51.355Z,59.63
2018-03-04T10:34:18.935Z,58.37
2018-03-04T10:36:46.596Z,57.67
2018-03-04T10:39:14.185Z,56.50
2018-03-04T10:41:42.051Z,55.60
2018-03-04T10:44:10.404Z,58.07
2018-03-04T10:46:38.071Z,60.73
2018-03-04T10:49:06.218Z,54.97
2018-03-04T10:51:33.798Z,56.93
2018-03-04T10:54:01.453Z,58.20
2018-03-04T10:56:29.083Z,61.30
2018-03-04T10:58:56.656Z,59.27
2018-03-04T11:01:28.124Z,54.20
2018-03-04T11:03:55.791Z,55.87
2018-03-04T11:06:23.336Z,60.90
2018-03-04T11:08:50.918Z,59.53
2018-03-04T11:11:18.539Z,59.93
2018-03-04T11:13:46.145Z,58.00
2018-03-04T11:16:14.481Z,58.40
2018-03-04T11:18:42.101Z,55.97
2018-03-04T11:21:09.760Z,59.20
2018-03-04T11:23:38.128Z,55.80
2018-03-04T11:26:06.066Z,57.73
2018-03-04T11:28:33.713Z,56.23
2018-03-04T11:31:01.998Z,55.80
2018-03-04T11:33:29.621Z,56.43
2018-03-04T11:35:57.405Z,55.97
2018-03-04T11:38:25.013Z,55.60
2018-03-04T11:40:52.681Z,55.70
2018-03-04T11:43:21.034Z,58.60
2018-03-04T11:45:48.983Z,58.10
2018-03-04T11:48:16.561Z,55.00
2018-03-04T11:50:44.145Z,51.83
2018-03-04T11:53:12.520Z,53.47
2018-03-04T11:55:40.905Z,57.10
2018-03-04T11:58:09.261Z,56.07
2018-03-04T12:00:37.641Z,59.10
2018-03-04T12:03:06.706Z,54.67
2018-03-04T12:05:34.695Z,50.30
2018-03-04T12:08:02.557Z,54.37
2018-03-04T12:10:30.157Z,56.60
2018-03-04T12:12:57.737Z,55.50
2018-03-04T12:15:25.333Z,56.10
2018-03-04T12:17:52.934Z,55.43
2018-03-04T12:20:21.313Z,55.93
2018-03-04T12:22:49.235Z,54.97
2018-03-04T12:25:16.907Z,56.37
2018-03-04T12:27:45.371Z,53.27
2018-03-04T12:30:12.984Z,52.17
2018-03-04T12:32:40.546Z,52.80
2018-03-04T12:35:08.143Z,50.23
2018-03-04T12:37:36.227Z,51.07
2018-03-04T12:40:03.802Z,51.10
2018-03-04T12:42:31.403Z,49.53
2018-03-04T12:44:59.293Z,48.93
2018-03-04T12:47:26.886Z,51.73
2018-03-04T12:49:55.266Z,49.57
2018-03-04T12:52:22.936Z,49.83
2018-03-04T12:54:51.676Z,47.47
2018-03-04T12:57:19.269Z,50.10
2018-03-04T12:59:47.663Z,50.20
2018-03-04T13:02:15.998Z,52.47
2018-03-04T13:04:43.760Z,53.63
2018-03-04T13:07:13.962Z,49.60
2018-03-04T13:09:41.538Z,48.57
2018-03-04T13:12:09.148Z,49.33
2018-03-04T13:14:36.805Z,48.60
2018-03-04T13:17:05.433Z,47.60
2018-03-04T13:19:33.706Z,47.47
2018-03-04T13:22:02.103Z,47.40
2018-03-04T13:24:30.096Z,46.10
2018-03-04T13:26:57.976Z,45.73
2018-03-04T13:29:26.311Z,44.87
2018-03-04T13:31:53.933Z,45.80
2018-03-04T13:34:21.584Z,42.80
2018-03-04T13:36:49.157Z,45.00
2018-03-04T13:39:16.748Z,43.40
2018-03-04T13:41:44.326Z,46.10
2018-03-04T13:44:11.945Z,44.17
2018-03-04T13:46:39.583Z,44.47
2018-03-04T13:49:09.303Z,43.80
2018-03-04T13:51:36.891Z,42.10
2018-03-04T13:54:04.480Z,42.80
2018-03-04T13:56:32.911Z,46.43
2018-03-04T13:59:00.492Z,43.13
2018-03-04T14:01:28.139Z,43.20
2018-03-04T14:03:55.718Z,45.20
2018-03-04T14:06:23.326Z,44.10
2018-03-04T14:08:50.941Z,44.50
2018-03-04T14:11:18.552Z,46.53
2018-03-04T14:13:46.200Z,45.10
2018-03-04T14:16:14.552Z,46.93
2018-03-04T14:18:42.106Z,46.10
2018-03-04T14:21:09.719Z,44.83
2018-03-04T14:23:37.303Z,46.60
2018-03-04T14:26:05.513Z,46.40
2018-03-04T14:28:33.958Z,45.63
2018-03-04T14:31:01.512Z,43.30
2018-03-04T14:33:29.118Z,44.07
2018-03-04T14:35:57.518Z,42.40
2018-03-04T14:38:25.175Z,37.77
2018-03-04T14:40:52.747Z,40.03
2018-03-04T14:43:20.328Z,39.53
2018-03-04T14:45:47.927Z,42.00
2018-03-04T14:48:16.265Z,42.90
2018-03-04T14:50:43.898Z,41.60
2018-03-04T14:53:11.477Z,40.83
2018-03-04T14:55:39.052Z,40.23
2018-03-04T14:58:06.838Z,42.00
2018-03-04T15:00:34.507Z,41.43
2018-03-04T15:03:02.425Z,40.77
2018-03-04T15:05:30.002Z,41.63
2018-03-04T15:07:57.585Z,42.80
2018-03-04T15:10:25.960Z,42.47
2018-03-04T15:12:53.580Z,43.07
2018-03-04T15:15:21.238Z,40.90
2018-03-04T15:17:48.828Z,41.70
2018-03-04T15:20:16.553Z,43.50
2018-03-04T15:22:44.155Z,40.23
2018-03-04T15:25:11.731Z,42.90
2018-03-04T15:27:40.144Z,41.90
2018-03-04T15:30:07.809Z,41.37
2018-03-04T15:32:35.379Z,40.90
2018-03-04T15:35:03.000Z,45.03
2018-03-04T15:37:31.352Z,43.27
2018-03-04T15:39:59.729Z,42.57
2018-03-04T15:42:27.341Z,45.17
2018-03-04T15:44:54.941Z,49.57
2018-03-04T15:47:22.564Z,51.10
2018-03-04T15:49:50.151Z,50.73
2018-03-04T15:52:17.720Z,47.67
2018-03-04T15:54:46.120Z,52.37
2018-03-04T15:57:14.465Z,50.77
2018-03-04T15:59:42.072Z,52.07
2018-03-04T16:02:09.753Z,52.83
2018-03-04T16:04:38.074Z,51.07
2018-03-04T16:07:06.416Z,51.60
2018-03-04T16:09:34.515Z,53.90
2018-03-04T16:12:02.230Z,53.57
2018-03-04T16:14:30.150Z,49.50
2018-03-04T16:16:58.521Z,51.80
2018-03-04T16:19:26.083Z,49.33
2018-03-04T16:21:53.684Z,53.53
2018-03-04T16:24:21.261Z,52.70
2018-03-04T16:26:48.877Z,53.23
2018-03-04T16:29:16.480Z,53.47
2018-03-04T16:31:44.049Z,51.33
2018-03-04T16:34:11.653Z,53.90
2018-03-04T16:36:39.233Z,51.17
2018-03-04T16:39:07.621Z,53.40
2018-03-04T16:41:35.729Z,54.27
2018-03-04T16:44:03.326Z,58.63
2018-03-04T16:46:30.924Z,66.23
2018-03-04T16:48:58.543Z,60.70
2018-03-04T16:51:26.923Z,54.13
2018-03-04T16:53:54.518Z,55.13
2018-03-04T16:56:22.089Z,52.60
2018-03-04T16:58:49.977Z,52.30
2018-03-04T17:01:17.554Z,56.77
2018-03-04T17:03:45.889Z,53.87
2018-03-04T17:06:13.517Z,53.20
2018-03-04T17:08:41.966Z,54.97
2018-03-04T17:11:09.553Z,55.40
2018-03-04T17:13:38.101Z,52.93
2018-03-04T17:16:05.679Z,53.80
2018-03-04T17:18:34.054Z,56.57
2018-03-04T17:21:01.614Z,51.90
2018-03-04T17:23:29.195Z,57.33
2018-03-04T17:25:57.570Z,55.37
2018-03-04T17:28:25.919Z,53.03
2018-03-04T17:30:53.880Z,56.23
2018-03-04T17:33:21.458Z,56.23
2018-03-04T17:35:49.810Z,57.23
2018-03-04T17:38:17.423Z,57.90
2018-03-04T17:40:45.950Z,57.67
2018-03-04T17:43:13.794Z,56.63
2018-03-04T17:45:41.377Z,56.33
2018-03-04T17:48:08.959Z,58.23
2018-03-04T17:50:37.362Z,59.47
2018-03-04T17:53:04.943Z,58.83
2018-03-04T17:55:32.554Z,57.43
2018-03-04T17:58:00.160Z,56.30
2018-03-04T18:00:27.747Z,58.23
2018-03-04T18:02:55.345Z,57.40
2018-03-04T18:05:23.695Z,60.07
2018-03-04T18:07:52.800Z,59.47
2018-03-04T18:10:21.947Z,56.27
2018-03-04T18:12:50.342Z,58.67
2018-03-04T18:15:17.964Z,57.70
2018-03-04T18:17:45.588Z,59.57
2018-03-04T18:20:13.171Z,56.17
2018-03-04T18:22:42.222Z,60.17
2018-03-04T18:25:09.841Z,58.67
2018-03-04T18:27:37.439Z,56.43
2018-03-04T18:30:05.044Z,60.50
2018-03-04T18:32:33.466Z,58.60
2018-03-04T18:35:01.066Z,57.03
2018-03-04T18:37:28.796Z,58.13
2018-03-04T18:39:56.384Z,59.80
2018-03-04T18:42:23.960Z,58.13
2018-03-04T18:44:52.321Z,58.60
2018-03-04T18:47:19.908Z,61.03
2018-03-04T18:49:48.265Z,58.80
2018-03-04T18:52:15.878Z,57.27
2018-03-04T18:54:43.453Z,53.60
2018-03-04T18:57:11.069Z,58.07
2018-03-04T18:59:38.671Z,54.87
2018-03-04T19:02:06.289Z,54.67
2018-03-04T19:04:34.209Z,58.17
2018-03-04T19:07:01.862Z,56.60
2018-03-04T19:09:29.451Z,58.73
2018-03-04T19:11:57.831Z,55.10
2018-03-04T19:14:26.271Z,55.80
2018-03-04T19:16:53.908Z,53.00
2018-03-04T19:19:21.478Z,53.17
2018-03-04T19:21:49.069Z,55.03
2018-03-04T19:24:16.692Z,53.50
2018-03-04T19:26:44.276Z,51.13
2018-03-04T19:29:12.167Z,50.13
2018-03-04T19:31:39.894Z,48.30
2018-03-04T19:34:07.481Z,51.10
2018-03-04T19:36:35.084Z,50.13
2018-03-04T19:39:02.663Z,50.47
2018-03-04T19:41:30.271Z,47.03
2018-03-04T19:43:57.869Z,44.07
2018-03-04T19:46:25.493Z,51.03
2018-03-04T19:48:53.885Z,48.20
2018-03-04T19:51:22.242Z,47.43
2018-03-04T19:53:50.122Z,46.03
2018-03-04T19:56:18.471Z,45.73
2018-03-04T19:58:46.063Z,46.77
2018-03-04T20:01:14.438Z,42.43
2018-03-04T20:03:42.774Z,41.37
2018-03-04T20:06:10.383Z,45.57
2018-03-04T20:08:37.958Z,40.37
2018-03-04T20:11:05.541Z,43.83
2018-03-04T20:13:33.144Z,41.90
2018-03-04T20:16:00.744Z,43.93
2018-03-04T20:18:28.655Z,40.00
2018-03-04T20:20:56.217Z,42.87
2018-03-04T20:23:24.575Z,39.50
2018-03-04T20:25:52.182Z,38.27
2018-03-04T20:28:20.558Z,38.17
2018-03-04T20:30:49.180Z,37.60
2018-03-04T20:33:16.802Z,39.37
2018-03-04T20:35:45.138Z,37.30
2018-03-04T20:38:12.736Z,35.13
2018-03-04T20:40:41.413Z,36.67
2018-03-04T20:43:09.893Z,37.20
2018-03-04T20:45:38.233Z,35.23
2018-03-04T20:48:05.803Z,36.20
2018-03-04T20:50:33.421Z,34.37
2018-03-04T20:53:01.059Z,33.50
2018-03-04T20:55:29.430Z,34.80
2018-03-04T20:57:57.787Z,34.40
2018-03-04T21:00:26.919Z,32.07
2018-03-04T21:02:54.498Z,33.37
2018-03-04T21:05:22.072Z,31.37
2018-03-04T21:07:50.060Z,30.30
2018-03-04T21:10:18.405Z,30.40
2018-03-04T21:12:45.998Z,30.90
2018-03-04T21:15:13.604Z,30.40
2018-03-04T21:17:41.162Z,31.07
2018-03-04T21:20:09.083Z,29.40
2018-03-04T21:22:36.813Z,30.60
2018-03-04T21:25:04.469Z,29.20
2018-03-04T21:27:32.068Z,27.53
2018-03-04T21:29:59.613Z,30.00
2018-03-04T21:32:27.233Z,27.33
2018-03-04T21:34:54.886Z,27.70
2018-03-04T21:37:22.445Z,27.50
2018-03-04T21:39:50.325Z,28.97
2018-03-04T21:42:18.455Z,28.53
2018-03-04T21:44:46.798Z,25.93
2018-03-04T21:47:14.382Z,28.63
2018-03-04T21:49:41.972Z,28.80
2018-03-04T21:52:09.586Z,30.03
2018-03-04T21:54:37.147Z,28.70
2018-03-04T21:57:04.736Z,28.20
2018-03-04T21:59:33.101Z,30.93
2018-03-04T22:02:00.660Z,30.50
2018-03-04T22:04:29.039Z,30.30
2018-03-04T22:06:56.626Z,30.20
2018-03-04T22:09:24.199Z,31.27
2018-03-04T22:11:51.781Z,28.97
2018-03-04T22:14:19.343Z,30.60
2018-03-04T22:16:46.927Z,31.57
2018-03-04T22:19:15.278Z,29.10
2018-03-04T22:21:42.843Z,31.67
2018-03-04T22:24:10.435Z,31.80
2018-03-04T22:26:38.773Z,32.37
2018-03-04T22:29:07.060Z,32.43
2018-03-04T22:31:34.642Z,32.50
2018-03-04T22:34:02.198Z,35.23
2018-03-04T22:36:29.787Z,31.90
2018-03-04T22:38:57.364Z,32.33
2018-03-04T22:41:25.261Z,35.80
2018-03-04T22:43:52.827Z,34.30
2018-03-04T22:46:20.398Z,33.70
2018-03-04T22:48:49.488Z,36.77
2018-03-04T22:51:17.850Z,32.47
2018-03-04T22:53:45.742Z,36.20
2018-03-04T22:56:14.075Z,30.00
2018-03-04T22:58:41.647Z,33.27
2018-03-04T23:01:09.243Z,36.70
2018-03-04T23:03:37.588Z,37.40
2018-03-04T23:06:05.542Z,36.40
2018-03-04T23:08:33.115Z,32.40
2018-03-04T23:11:00.677Z,34.90
2018-03-04T23:13:28.272Z,34.67
2018-03-04T23:15:56.596Z,36.80
2018-03-04T23:18:24.203Z,33.53
2018-03-04T23:20:52.833Z,36.17
2018-03-04T23:23:20.389Z,32.57
2018-03-04T23:25:47.963Z,33.13
2018-03-04T23:28:15.585Z,33.00
2018-03-04T23:30:43.153Z,33.27
2018-03-04T23:33:10.715Z,30.80
2018-03-04T23:35:38.335Z,32.13
2018-03-04T23:38:06.784Z,27.90
2018-03-04T23:40:34.354Z,32.90
2018-03-04T23:43:02.181Z,31.53
2018-03-04T23:45:29.756Z,31.10
2018-03-04T23:47:57.330Z,29.90
2018-03-04T23:50:24.941Z,28.37
2018-03-04T23:52:52.509Z,32.50
2018-03-04T23:55:20.112Z,31.40
2018-03-04T23:57:47.683Z,31.23
